sensor_id;sensor_type;location;lat;lon;timestamp;P1;durP1;ratioP1;P2;durP2;ratioP2
18947;SDS011;9607;51.600;7.558;2023-02-03T00:01:45;72.53;;;37.15;;
18947;SDS011;9607;51.600;7.558;2023-02-03T00:04:11;63.83;;;37.15;;
18947;SDS011;9607;51.600;7.558;2023-02-03T00:06:40;72.35;;;36.47;;
18947;SDS011;9607;51.600;7.558;2023-02-03T00:09:07;58.53;;;35.10;;
18947;SDS011;9607;51.600;7.558;2023-02-03T00:11:34;55.60;;;33.70;;
18947;SDS011;9607;51.600;7.558;2023-02-03T00:14:01;72.55;;;37.63;;
18947;SDS011;9607;51.600;7.558;2023-02-03T00:16:32;61.90;;;36.22;;
18947;SDS011;9607;51.600;7.558;2023-02-03T00:18:58;67.75;;;35.63;;
18947;SDS011;9607;51.600;7.558;2023-02-03T00:21:25;62.95;;;37.67;;
18947;SDS011;9607;51.600;7.558;2023-02-03T00:23:54;64.50;;;35.72;;
18947;SDS011;9607;51.600;7.558;2023-02-03T00:26:20;62.95;;;35.30;;
18947;SDS011;9607;51.600;7.558;2023-02-03T00:28:48;65.70;;;37.10;;
18947;SDS011;9607;51.600;7.558;2023-02-03T00:31:15;62.63;;;34.03;;
18947;SDS011;9607;51.600;7.558;2023-02-03T00:33:42;58.88;;;33.33;;
18947;SDS011;9607;51.600;7.558;2023-02-03T00:36:09;56.28;;;33.90;;
18947;SDS011;9607;51.600;7.558;2023-02-03T00:38:37;60.65;;;34.03;;
18947;SDS011;9607;51.600;7.558;2023-02-03T00:41:05;55.28;;;33.42;;
18947;SDS011;9607;51.600;7.558;2023-02-03T00:43:32;57.97;;;33.75;;
18947;SDS011;9607;51.600;7.558;2023-02-03T00:45:59;57.92;;;33.63;;
18947;SDS011;9607;51.600;7.558;2023-02-03T00:48:26;58.67;;;33.63;;
18947;SDS011;9607;51.600;7.558;2023-02-03T00:50:53;59.53;;;32.67;;
18947;SDS011;9607;51.600;7.558;2023-02-03T00:53:20;51.30;;;32.30;;
18947;SDS011;9607;51.600;7.558;2023-02-03T00:55:46;51.78;;;29.45;;
18947;SDS011;9607;51.600;7.558;2023-02-03T00:58:15;54.30;;;32.28;;
18947;SDS011;9607;51.600;7.558;2023-02-03T01:00:41;55.38;;;32.97;;
18947;SDS011;9607;51.600;7.558;2023-02-03T01:03:08;56.03;;;32.85;;
18947;SDS011;9607;51.600;7.558;2023-02-03T01:05:35;58.75;;;34.10;;
18947;SDS011;9607;51.600;7.558;2023-02-03T01:08:02;53.60;;;32.63;;
18947;SDS011;9607;51.600;7.558;2023-02-03T01:10:30;47.72;;;30.95;;
18947;SDS011;9607;51.600;7.558;2023-02-03T01:12:57;57.42;;;33.40;;
18947;SDS011;9607;51.600;7.558;2023-02-03T01:15:25;55.55;;;30.60;;
18947;SDS011;9607;51.600;7.558;2023-02-03T01:17:52;56.22;;;31.75;;
18947;SDS011;9607;51.600;7.558;2023-02-03T01:20:19;58.88;;;31.38;;
18947;SDS011;9607;51.600;7.558;2023-02-03T01:22:46;44.08;;;28.88;;
18947;SDS011;9607;51.600;7.558;2023-02-03T01:25:13;55.63;;;31.15;;
18947;SDS011;9607;51.600;7.558;2023-02-03T01:27:40;51.30;;;30.90;;
18947;SDS011;9607;51.600;7.558;2023-02-03T01:30:07;61.50;;;33.50;;
18947;SDS011;9607;51.600;7.558;2023-02-03T01:32:36;50.53;;;28.63;;
18947;SDS011;9607;51.600;7.558;2023-02-03T01:35:03;49.78;;;30.92;;
18947;SDS011;9607;51.600;7.558;2023-02-03T01:37:30;51.13;;;32.50;;
18947;SDS011;9607;51.600;7.558;2023-02-03T01:39:57;52.50;;;32.13;;
18947;SDS011;9607;51.600;7.558;2023-02-03T01:42:24;51.75;;;31.83;;
18947;SDS011;9607;51.600;7.558;2023-02-03T01:44:50;64.00;;;34.92;;
18947;SDS011;9607;51.600;7.558;2023-02-03T01:47:23;56.65;;;32.70;;
18947;SDS011;9607;51.600;7.558;2023-02-03T01:49:57;58.65;;;32.05;;
18947;SDS011;9607;51.600;7.558;2023-02-03T01:52:28;61.05;;;35.05;;
18947;SDS011;9607;51.600;7.558;2023-02-03T01:54:57;60.08;;;33.80;;
18947;SDS011;9607;51.600;7.558;2023-02-03T01:57:29;51.83;;;33.83;;
18947;SDS011;9607;51.600;7.558;2023-02-03T02:00:03;56.60;;;33.22;;
18947;SDS011;9607;51.600;7.558;2023-02-03T02:02:32;60.60;;;33.10;;
18947;SDS011;9607;51.600;7.558;2023-02-03T02:05:02;53.75;;;32.10;;
18947;SDS011;9607;51.600;7.558;2023-02-03T02:07:32;52.55;;;31.45;;
18947;SDS011;9607;51.600;7.558;2023-02-03T02:10:01;51.80;;;32.17;;
18947;SDS011;9607;51.600;7.558;2023-02-03T02:12:29;48.30;;;29.90;;
18947;SDS011;9607;51.600;7.558;2023-02-03T02:14:56;55.90;;;31.58;;
18947;SDS011;9607;51.600;7.558;2023-02-03T02:17:35;53.42;;;31.35;;
18947;SDS011;9607;51.600;7.558;2023-02-03T02:20:23;48.40;;;30.42;;
18947;SDS011;9607;51.600;7.558;2023-02-03T02:23:16;46.92;;;29.27;;
18947;SDS011;9607;51.600;7.558;2023-02-03T02:26:12;49.95;;;29.83;;
18947;SDS011;9607;51.600;7.558;2023-02-03T02:32:25;48.20;;;29.13;;
18947;SDS011;9607;51.600;7.558;2023-02-03T02:35:01;46.58;;;27.40;;
18947;SDS011;9607;51.600;7.558;2023-02-03T02:37:35;44.65;;;28.80;;
18947;SDS011;9607;51.600;7.558;2023-02-03T02:40:13;49.28;;;28.85;;
18947;SDS011;9607;51.600;7.558;2023-02-03T02:42:51;45.28;;;27.98;;
18947;SDS011;9607;51.600;7.558;2023-02-03T02:45:28;46.17;;;27.67;;
18947;SDS011;9607;51.600;7.558;2023-02-03T02:48:00;47.95;;;27.85;;
18947;SDS011;9607;51.600;7.558;2023-02-03T02:50:34;44.00;;;28.35;;
18947;SDS011;9607;51.600;7.558;2023-02-03T02:53:05;47.67;;;28.88;;
18947;SDS011;9607;51.600;7.558;2023-02-03T02:55:35;44.05;;;26.80;;
18947;SDS011;9607;51.600;7.558;2023-02-03T02:58:05;41.85;;;26.08;;
18947;SDS011;9607;51.600;7.558;2023-02-03T03:00:38;41.50;;;27.30;;
18947;SDS011;9607;51.600;7.558;2023-02-03T03:03:10;40.80;;;26.77;;
18947;SDS011;9607;51.600;7.558;2023-02-03T03:05:38;47.67;;;28.13;;
18947;SDS011;9607;51.600;7.558;2023-02-03T03:08:08;47.17;;;26.05;;
18947;SDS011;9607;51.600;7.558;2023-02-03T03:10:37;42.20;;;26.50;;
18947;SDS011;9607;51.600;7.558;2023-02-03T03:13:07;39.10;;;26.80;;
18947;SDS011;9607;51.600;7.558;2023-02-03T03:15:38;37.67;;;26.05;;
18947;SDS011;9607;51.600;7.558;2023-02-03T03:18:07;43.90;;;27.08;;
18947;SDS011;9607;51.600;7.558;2023-02-03T03:20:40;40.95;;;25.80;;
18947;SDS011;9607;51.600;7.558;2023-02-03T03:23:09;42.40;;;26.90;;
18947;SDS011;9607;51.600;7.558;2023-02-03T03:25:40;37.17;;;25.52;;
18947;SDS011;9607;51.600;7.558;2023-02-03T03:28:12;35.17;;;24.10;;
18947;SDS011;9607;51.600;7.558;2023-02-03T03:30:43;47.03;;;27.42;;
18947;SDS011;9607;51.600;7.558;2023-02-03T03:33:10;38.33;;;24.40;;
18947;SDS011;9607;51.600;7.558;2023-02-03T03:35:38;47.05;;;26.55;;
18947;SDS011;9607;51.600;7.558;2023-02-03T03:38:13;45.70;;;25.02;;
18947;SDS011;9607;51.600;7.558;2023-02-03T03:40:46;42.88;;;25.90;;
18947;SDS011;9607;51.600;7.558;2023-02-03T03:43:18;39.47;;;24.27;;
18947;SDS011;9607;51.600;7.558;2023-02-03T03:45:52;40.13;;;23.52;;
18947;SDS011;9607;51.600;7.558;2023-02-03T03:48:22;37.78;;;23.52;;
18947;SDS011;9607;51.600;7.558;2023-02-03T03:50:55;37.30;;;21.70;;
18947;SDS011;9607;51.600;7.558;2023-02-03T03:53:27;34.38;;;20.35;;
18947;SDS011;9607;51.600;7.558;2023-02-03T03:55:57;39.85;;;22.45;;
18947;SDS011;9607;51.600;7.558;2023-02-03T03:58:27;27.00;;;19.92;;
18947;SDS011;9607;51.600;7.558;2023-02-03T04:00:56;32.30;;;20.48;;
18947;SDS011;9607;51.600;7.558;2023-02-03T04:03:27;34.50;;;20.27;;
18947;SDS011;9607;51.600;7.558;2023-02-03T04:05:59;33.03;;;18.33;;
18947;SDS011;9607;51.600;7.558;2023-02-03T04:08:26;26.92;;;17.67;;
18947;SDS011;9607;51.600;7.558;2023-02-03T04:10:53;31.63;;;18.08;;
18947;SDS011;9607;51.600;7.558;2023-02-03T04:13:19;27.25;;;17.55;;
18947;SDS011;9607;51.600;7.558;2023-02-03T04:15:46;27.33;;;16.55;;
18947;SDS011;9607;51.600;7.558;2023-02-03T04:18:13;26.58;;;15.73;;
18947;SDS011;9607;51.600;7.558;2023-02-03T04:20:41;28.67;;;15.95;;
18947;SDS011;9607;51.600;7.558;2023-02-03T04:23:09;25.30;;;15.32;;
18947;SDS011;9607;51.600;7.558;2023-02-03T04:25:36;24.83;;;15.70;;
18947;SDS011;9607;51.600;7.558;2023-02-03T04:28:04;31.65;;;16.60;;
18947;SDS011;9607;51.600;7.558;2023-02-03T04:30:31;22.02;;;15.35;;
18947;SDS011;9607;51.600;7.558;2023-02-03T04:32:58;28.70;;;15.10;;
18947;SDS011;9607;51.600;7.558;2023-02-03T04:35:24;25.35;;;14.40;;
18947;SDS011;9607;51.600;7.558;2023-02-03T04:37:51;25.55;;;14.52;;
18947;SDS011;9607;51.600;7.558;2023-02-03T04:40:19;19.88;;;12.82;;
18947;SDS011;9607;51.600;7.558;2023-02-03T04:42:46;22.92;;;14.30;;
18947;SDS011;9607;51.600;7.558;2023-02-03T04:45:13;23.08;;;13.90;;
18947;SDS011;9607;51.600;7.558;2023-02-03T04:47:40;22.33;;;14.25;;
18947;SDS011;9607;51.600;7.558;2023-02-03T04:50:07;21.08;;;14.27;;
18947;SDS011;9607;51.600;7.558;2023-02-03T04:52:35;23.40;;;14.73;;
18947;SDS011;9607;51.600;7.558;2023-02-03T04:55:01;24.45;;;14.20;;
18947;SDS011;9607;51.600;7.558;2023-02-03T04:57:30;25.35;;;14.82;;
18947;SDS011;9607;51.600;7.558;2023-02-03T04:59:57;21.55;;;13.32;;
18947;SDS011;9607;51.600;7.558;2023-02-03T05:02:24;25.48;;;13.82;;
18947;SDS011;9607;51.600;7.558;2023-02-03T05:04:51;23.80;;;13.57;;
18947;SDS011;9607;51.600;7.558;2023-02-03T05:07:17;24.92;;;13.60;;
18947;SDS011;9607;51.600;7.558;2023-02-03T05:09:44;25.30;;;13.95;;
18947;SDS011;9607;51.600;7.558;2023-02-03T05:12:11;19.88;;;13.65;;
18947;SDS011;9607;51.600;7.558;2023-02-03T05:14:40;22.10;;;13.07;;
18947;SDS011;9607;51.600;7.558;2023-02-03T05:17:06;22.65;;;13.38;;
18947;SDS011;9607;51.600;7.558;2023-02-03T05:19:34;24.10;;;13.25;;
18947;SDS011;9607;51.600;7.558;2023-02-03T05:22:01;21.40;;;13.60;;
18947;SDS011;9607;51.600;7.558;2023-02-03T05:24:28;19.63;;;12.98;;
18947;SDS011;9607;51.600;7.558;2023-02-03T05:26:55;26.02;;;13.30;;
18947;SDS011;9607;51.600;7.558;2023-02-03T05:29:21;26.30;;;13.68;;
18947;SDS011;9607;51.600;7.558;2023-02-03T05:31:49;26.10;;;12.90;;
18947;SDS011;9607;51.600;7.558;2023-02-03T05:34:16;17.20;;;12.07;;
18947;SDS011;9607;51.600;7.558;2023-02-03T05:36:43;22.42;;;12.40;;
18947;SDS011;9607;51.600;7.558;2023-02-03T05:39:10;23.15;;;11.68;;
18947;SDS011;9607;51.600;7.558;2023-02-03T05:41:37;16.10;;;11.57;;
18947;SDS011;9607;51.600;7.558;2023-02-03T05:44:18;16.10;;;11.60;;
18947;SDS011;9607;51.600;7.558;2023-02-03T05:46:46;17.17;;;10.57;;
18947;SDS011;9607;51.600;7.558;2023-02-03T05:49:15;17.23;;;10.68;;
18947;SDS011;9607;51.600;7.558;2023-02-03T05:51:43;13.95;;;9.60;;
18947;SDS011;9607;51.600;7.558;2023-02-03T05:54:10;16.88;;;9.60;;
18947;SDS011;9607;51.600;7.558;2023-02-03T05:56:37;22.70;;;10.77;;
18947;SDS011;9607;51.600;7.558;2023-02-03T05:59:04;20.67;;;11.40;;
18947;SDS011;9607;51.600;7.558;2023-02-03T06:01:31;14.65;;;10.07;;
18947;SDS011;9607;51.600;7.558;2023-02-03T06:03:59;18.25;;;9.75;;
18947;SDS011;9607;51.600;7.558;2023-02-03T06:06:28;21.52;;;10.02;;
18947;SDS011;9607;51.600;7.558;2023-02-03T06:08:58;15.15;;;9.25;;
18947;SDS011;9607;51.600;7.558;2023-02-03T06:11:25;15.75;;;9.20;;
18947;SDS011;9607;51.600;7.558;2023-02-03T06:13:52;18.23;;;9.23;;
18947;SDS011;9607;51.600;7.558;2023-02-03T06:16:19;19.35;;;9.02;;
18947;SDS011;9607;51.600;7.558;2023-02-03T06:18:48;15.15;;;8.52;;
18947;SDS011;9607;51.600;7.558;2023-02-03T06:21:15;20.25;;;8.38;;
18947;SDS011;9607;51.600;7.558;2023-02-03T06:23:43;16.75;;;9.07;;
18947;SDS011;9607;51.600;7.558;2023-02-03T06:26:10;19.05;;;9.15;;
18947;SDS011;9607;51.600;7.558;2023-02-03T06:28:37;20.38;;;9.52;;
18947;SDS011;9607;51.600;7.558;2023-02-03T06:31:05;11.45;;;8.38;;
18947;SDS011;9607;51.600;7.558;2023-02-03T06:33:32;13.20;;;7.82;;
18947;SDS011;9607;51.600;7.558;2023-02-03T06:35:59;17.27;;;8.80;;
18947;SDS011;9607;51.600;7.558;2023-02-03T06:38:27;13.32;;;7.60;;
18947;SDS011;9607;51.600;7.558;2023-02-03T06:40:55;18.48;;;9.18;;
18947;SDS011;9607;51.600;7.558;2023-02-03T06:43:22;19.85;;;9.10;;
18947;SDS011;9607;51.600;7.558;2023-02-03T06:45:49;15.85;;;8.73;;
18947;SDS011;9607;51.600;7.558;2023-02-03T06:48:16;15.90;;;8.35;;
18947;SDS011;9607;51.600;7.558;2023-02-03T06:50:43;14.55;;;7.80;;
18947;SDS011;9607;51.600;7.558;2023-02-03T06:53:10;13.63;;;7.68;;
18947;SDS011;9607;51.600;7.558;2023-02-03T06:55:37;15.15;;;7.65;;
18947;SDS011;9607;51.600;7.558;2023-02-03T06:58:06;14.35;;;8.13;;
18947;SDS011;9607;51.600;7.558;2023-02-03T07:00:33;11.35;;;7.85;;
18947;SDS011;9607;51.600;7.558;2023-02-03T07:03:00;16.90;;;8.90;;
18947;SDS011;9607;51.600;7.558;2023-02-03T07:05:27;10.35;;;7.97;;
18947;SDS011;9607;51.600;7.558;2023-02-03T07:07:54;14.40;;;8.90;;
18947;SDS011;9607;51.600;7.558;2023-02-03T07:10:20;13.82;;;9.43;;
18947;SDS011;9607;51.600;7.558;2023-02-03T07:12:47;15.52;;;10.27;;
18947;SDS011;9607;51.600;7.558;2023-02-03T07:15:17;18.80;;;10.32;;
18947;SDS011;9607;51.600;7.558;2023-02-03T07:17:45;17.10;;;10.82;;
18947;SDS011;9607;51.600;7.558;2023-02-03T07:20:18;17.92;;;11.38;;
18947;SDS011;9607;51.600;7.558;2023-02-03T07:22:50;17.85;;;12.13;;
18947;SDS011;9607;51.600;7.558;2023-02-03T07:25:17;19.05;;;12.82;;
18947;SDS011;9607;51.600;7.558;2023-02-03T07:27:44;21.80;;;12.98;;
18947;SDS011;9607;51.600;7.558;2023-02-03T07:30:11;20.55;;;12.35;;
18947;SDS011;9607;51.600;7.558;2023-02-03T07:32:40;21.55;;;13.73;;
18947;SDS011;9607;51.600;7.558;2023-02-03T07:35:07;18.55;;;12.98;;
18947;SDS011;9607;51.600;7.558;2023-02-03T07:37:33;19.08;;;12.63;;
18947;SDS011;9607;51.600;7.558;2023-02-03T07:40:00;18.55;;;13.13;;
18947;SDS011;9607;51.600;7.558;2023-02-03T07:42:28;18.33;;;12.25;;
18947;SDS011;9607;51.600;7.558;2023-02-03T07:44:55;17.20;;;12.45;;
18947;SDS011;9607;51.600;7.558;2023-02-03T07:47:21;23.10;;;14.55;;
18947;SDS011;9607;51.600;7.558;2023-02-03T07:49:50;23.38;;;14.20;;
18947;SDS011;9607;51.600;7.558;2023-02-03T07:52:16;21.90;;;13.82;;
18947;SDS011;9607;51.600;7.558;2023-02-03T07:54:43;20.05;;;12.70;;
18947;SDS011;9607;51.600;7.558;2023-02-03T07:57:10;19.75;;;12.50;;
18947;SDS011;9607;51.600;7.558;2023-02-03T07:59:37;19.33;;;12.65;;
18947;SDS011;9607;51.600;7.558;2023-02-03T08:02:04;18.33;;;11.65;;
18947;SDS011;9607;51.600;7.558;2023-02-03T08:04:33;15.88;;;11.20;;
18947;SDS011;9607;51.600;7.558;2023-02-03T08:07:01;21.63;;;10.60;;
18947;SDS011;9607;51.600;7.558;2023-02-03T08:09:28;19.55;;;10.55;;
18947;SDS011;9607;51.600;7.558;2023-02-03T08:11:55;17.70;;;9.82;;
18947;SDS011;9607;51.600;7.558;2023-02-03T08:14:21;13.75;;;8.70;;
18947;SDS011;9607;51.600;7.558;2023-02-03T08:16:48;16.08;;;9.55;;
18947;SDS011;9607;51.600;7.558;2023-02-03T08:19:15;15.48;;;8.65;;
18947;SDS011;9607;51.600;7.558;2023-02-03T08:21:42;19.60;;;9.40;;
18947;SDS011;9607;51.600;7.558;2023-02-03T08:24:10;14.35;;;8.35;;
18947;SDS011;9607;51.600;7.558;2023-02-03T08:26:37;11.90;;;8.20;;
18947;SDS011;9607;51.600;7.558;2023-02-03T08:29:04;11.15;;;6.82;;
18947;SDS011;9607;51.600;7.558;2023-02-03T08:31:32;14.02;;;7.32;;
18947;SDS011;9607;51.600;7.558;2023-02-03T08:33:59;11.07;;;6.65;;
18947;SDS011;9607;51.600;7.558;2023-02-03T08:36:25;13.43;;;6.97;;
18947;SDS011;9607;51.600;7.558;2023-02-03T08:38:52;10.15;;;6.22;;
18947;SDS011;9607;51.600;7.558;2023-02-03T08:41:20;8.90;;;6.55;;
18947;SDS011;9607;51.600;7.558;2023-02-03T08:43:47;12.27;;;6.60;;
18947;SDS011;9607;51.600;7.558;2023-02-03T08:46:14;13.82;;;6.70;;
18947;SDS011;9607;51.600;7.558;2023-02-03T08:48:41;13.77;;;6.82;;
18947;SDS011;9607;51.600;7.558;2023-02-03T08:51:09;12.05;;;6.45;;
18947;SDS011;9607;51.600;7.558;2023-02-03T08:53:36;15.27;;;6.60;;
18947;SDS011;9607;51.600;7.558;2023-02-03T08:56:04;10.10;;;6.40;;
18947;SDS011;9607;51.600;7.558;2023-02-03T08:58:32;11.40;;;6.00;;
18947;SDS011;9607;51.600;7.558;2023-02-03T09:01:06;10.48;;;6.25;;
18947;SDS011;9607;51.600;7.558;2023-02-03T09:03:33;13.13;;;6.00;;
18947;SDS011;9607;51.600;7.558;2023-02-03T09:06:00;11.80;;;7.13;;
18947;SDS011;9607;51.600;7.558;2023-02-03T09:08:28;10.13;;;6.47;;
18947;SDS011;9607;51.600;7.558;2023-02-03T09:10:55;9.30;;;6.35;;
18947;SDS011;9607;51.600;7.558;2023-02-03T09:13:22;12.50;;;6.53;;
18947;SDS011;9607;51.600;7.558;2023-02-03T09:15:50;12.18;;;6.47;;
18947;SDS011;9607;51.600;7.558;2023-02-03T09:18:17;9.35;;;5.80;;
18947;SDS011;9607;51.600;7.558;2023-02-03T09:20:44;9.18;;;6.15;;
18947;SDS011;9607;51.600;7.558;2023-02-03T09:23:11;11.10;;;6.00;;
18947;SDS011;9607;51.600;7.558;2023-02-03T09:25:38;9.70;;;6.25;;
18947;SDS011;9607;51.600;7.558;2023-02-03T09:28:05;13.63;;;6.15;;
18947;SDS011;9607;51.600;7.558;2023-02-03T09:30:31;13.60;;;6.65;;
18947;SDS011;9607;51.600;7.558;2023-02-03T09:33:00;11.73;;;6.63;;
18947;SDS011;9607;51.600;7.558;2023-02-03T09:35:26;14.18;;;6.95;;
18947;SDS011;9607;51.600;7.558;2023-02-03T09:37:54;11.55;;;7.30;;
18947;SDS011;9607;51.600;7.558;2023-02-03T09:40:22;13.68;;;6.20;;
18947;SDS011;9607;51.600;7.558;2023-02-03T09:42:56;8.40;;;5.90;;
18947;SDS011;9607;51.600;7.558;2023-02-03T09:45:32;7.65;;;5.60;;
18947;SDS011;9607;51.600;7.558;2023-02-03T09:48:01;15.68;;;7.10;;
18947;SDS011;9607;51.600;7.558;2023-02-03T09:50:31;14.25;;;6.97;;
18947;SDS011;9607;51.600;7.558;2023-02-03T09:53:01;14.10;;;7.00;;
18947;SDS011;9607;51.600;7.558;2023-02-03T09:55:32;16.10;;;7.43;;
18947;SDS011;9607;51.600;7.558;2023-02-03T09:58:02;13.70;;;7.03;;
18947;SDS011;9607;51.600;7.558;2023-02-03T10:00:32;14.18;;;6.82;;
18947;SDS011;9607;51.600;7.558;2023-02-03T10:03:04;14.68;;;6.68;;
18947;SDS011;9607;51.600;7.558;2023-02-03T10:05:42;9.90;;;6.45;;
18947;SDS011;9607;51.600;7.558;2023-02-03T10:08:23;14.32;;;7.47;;
18947;SDS011;9607;51.600;7.558;2023-02-03T10:11:03;15.35;;;7.70;;
18947;SDS011;9607;51.600;7.558;2023-02-03T10:13:43;11.15;;;6.60;;
18947;SDS011;9607;51.600;7.558;2023-02-03T10:16:30;11.25;;;6.28;;
18947;SDS011;9607;51.600;7.558;2023-02-03T10:19:10;11.82;;;6.53;;
18947;SDS011;9607;51.600;7.558;2023-02-03T10:21:41;12.48;;;6.60;;
18947;SDS011;9607;51.600;7.558;2023-02-03T10:24:13;14.15;;;6.18;;
18947;SDS011;9607;51.600;7.558;2023-02-03T10:26:44;10.88;;;5.60;;
18947;SDS011;9607;51.600;7.558;2023-02-03T10:29:17;12.70;;;6.00;;
18947;SDS011;9607;51.600;7.558;2023-02-03T10:31:45;13.43;;;7.20;;
18947;SDS011;9607;51.600;7.558;2023-02-03T10:34:15;10.52;;;5.82;;
18947;SDS011;9607;51.600;7.558;2023-02-03T10:36:50;16.35;;;6.10;;
18947;SDS011;9607;51.600;7.558;2023-02-03T10:39:23;13.70;;;6.47;;
18947;SDS011;9607;51.600;7.558;2023-02-03T10:41:56;13.35;;;6.47;;
18947;SDS011;9607;51.600;7.558;2023-02-03T10:44:24;9.73;;;5.78;;
18947;SDS011;9607;51.600;7.558;2023-02-03T10:46:57;11.25;;;6.22;;
18947;SDS011;9607;51.600;7.558;2023-02-03T10:49:26;13.35;;;6.03;;
18947;SDS011;9607;51.600;7.558;2023-02-03T10:51:54;14.00;;;6.43;;
18947;SDS011;9607;51.600;7.558;2023-02-03T10:54:28;13.85;;;5.60;;
18947;SDS011;9607;51.600;7.558;2023-02-03T10:57:00;11.73;;;5.78;;
18947;SDS011;9607;51.600;7.558;2023-02-03T10:59:30;12.73;;;5.75;;
18947;SDS011;9607;51.600;7.558;2023-02-03T11:01:59;10.00;;;5.93;;
18947;SDS011;9607;51.600;7.558;2023-02-03T11:04:36;11.85;;;5.72;;
18947;SDS011;9607;51.600;7.558;2023-02-03T11:07:04;15.88;;;5.82;;
18947;SDS011;9607;51.600;7.558;2023-02-03T11:09:33;11.50;;;5.95;;
18947;SDS011;9607;51.600;7.558;2023-02-03T11:12:04;8.90;;;6.05;;
18947;SDS011;9607;51.600;7.558;2023-02-03T11:14:35;15.27;;;5.68;;
18947;SDS011;9607;51.600;7.558;2023-02-03T11:17:06;15.85;;;5.90;;
18947;SDS011;9607;51.600;7.558;2023-02-03T11:19:36;14.95;;;6.03;;
18947;SDS011;9607;51.600;7.558;2023-02-03T11:22:04;12.70;;;5.15;;
18947;SDS011;9607;51.600;7.558;2023-02-03T11:24:32;13.00;;;4.70;;
18947;SDS011;9607;51.600;7.558;2023-02-03T11:27:03;15.32;;;5.10;;
18947;SDS011;9607;51.600;7.558;2023-02-03T11:29:32;9.95;;;4.90;;
18947;SDS011;9607;51.600;7.558;2023-02-03T11:32:01;15.50;;;5.30;;
18947;SDS011;9607;51.600;7.558;2023-02-03T11:34:32;13.85;;;5.10;;
18947;SDS011;9607;51.600;7.558;2023-02-03T11:37:09;13.95;;;4.85;;
18947;SDS011;9607;51.600;7.558;2023-02-03T11:39:54;13.35;;;5.32;;
18947;SDS011;9607;51.600;7.558;2023-02-03T11:42:21;8.57;;;5.00;;
18947;SDS011;9607;51.600;7.558;2023-02-03T11:44:49;13.13;;;5.13;;
18947;SDS011;9607;51.600;7.558;2023-02-03T11:47:16;13.63;;;5.10;;
18947;SDS011;9607;51.600;7.558;2023-02-03T11:49:53;14.68;;;5.22;;
18947;SDS011;9607;51.600;7.558;2023-02-03T11:55:39;12.18;;;5.22;;
18947;SDS011;9607;51.600;7.558;2023-02-03T11:58:26;11.10;;;4.85;;
18947;SDS011;9607;51.600;7.558;2023-02-03T12:01:18;13.43;;;5.57;;
18947;SDS011;9607;51.600;7.558;2023-02-03T12:03:56;12.90;;;5.78;;
18947;SDS011;9607;51.600;7.558;2023-02-03T12:06:52;12.20;;;6.35;;
18947;SDS011;9607;51.600;7.558;2023-02-03T12:09:40;13.13;;;5.70;;
18947;SDS011;9607;51.600;7.558;2023-02-03T12:12:21;13.75;;;5.68;;
18947;SDS011;9607;51.600;7.558;2023-02-03T12:15:00;10.73;;;4.85;;
18947;SDS011;9607;51.600;7.558;2023-02-03T12:17:49;15.18;;;5.40;;
18947;SDS011;9607;51.600;7.558;2023-02-03T12:20:30;10.27;;;4.78;;
18947;SDS011;9607;51.600;7.558;2023-02-03T12:23:10;9.40;;;5.15;;
18947;SDS011;9607;51.600;7.558;2023-02-03T12:25:51;14.35;;;4.68;;
18947;SDS011;9607;51.600;7.558;2023-02-03T12:28:30;9.98;;;4.90;;
18947;SDS011;9607;51.600;7.558;2023-02-03T12:31:15;8.73;;;4.45;;
18947;SDS011;9607;51.600;7.558;2023-02-03T12:33:49;11.48;;;4.55;;
18947;SDS011;9607;51.600;7.558;2023-02-03T12:36:21;12.77;;;5.28;;
18947;SDS011;9607;51.600;7.558;2023-02-03T12:38:53;9.68;;;4.53;;
18947;SDS011;9607;51.600;7.558;2023-02-03T12:41:25;12.02;;;5.55;;
18947;SDS011;9607;51.600;7.558;2023-02-03T12:43:57;11.35;;;4.55;;
18947;SDS011;9607;51.600;7.558;2023-02-03T12:46:28;13.48;;;5.13;;
18947;SDS011;9607;51.600;7.558;2023-02-03T12:48:58;9.68;;;4.68;;
18947;SDS011;9607;51.600;7.558;2023-02-03T12:51:30;11.25;;;6.07;;
18947;SDS011;9607;51.600;7.558;2023-02-03T12:54:04;13.25;;;6.10;;
18947;SDS011;9607;51.600;7.558;2023-02-03T12:56:38;22.73;;;7.47;;
18947;SDS011;9607;51.600;7.558;2023-02-03T12:59:10;16.08;;;6.88;;
18947;SDS011;9607;51.600;7.558;2023-02-03T13:01:41;16.45;;;5.10;;
18947;SDS011;9607;51.600;7.558;2023-02-03T13:04:16;10.63;;;4.50;;
18947;SDS011;9607;51.600;7.558;2023-02-03T13:06:51;17.75;;;4.68;;
18947;SDS011;9607;51.600;7.558;2023-02-03T13:09:26;19.83;;;5.45;;
18947;SDS011;9607;51.600;7.558;2023-02-03T13:12:00;19.83;;;5.40;;
18947;SDS011;9607;51.600;7.558;2023-02-03T13:14:33;16.20;;;5.53;;
18947;SDS011;9607;51.600;7.558;2023-02-03T13:17:05;18.48;;;5.85;;
18947;SDS011;9607;51.600;7.558;2023-02-03T13:19:41;13.80;;;5.30;;
18947;SDS011;9607;51.600;7.558;2023-02-03T13:22:12;17.70;;;4.63;;
18947;SDS011;9607;51.600;7.558;2023-02-03T13:24:43;17.08;;;4.55;;
18947;SDS011;9607;51.600;7.558;2023-02-03T13:27:21;17.75;;;5.15;;
18947;SDS011;9607;51.600;7.558;2023-02-03T13:30:06;15.32;;;4.10;;
18947;SDS011;9607;51.600;7.558;2023-02-03T13:32:52;17.15;;;3.70;;
18947;SDS011;9607;51.600;7.558;2023-02-03T13:35:44;16.65;;;4.38;;
18947;SDS011;9607;51.600;7.558;2023-02-03T13:38:25;19.67;;;4.78;;
18947;SDS011;9607;51.600;7.558;2023-02-03T13:41:14;22.08;;;4.82;;
18947;SDS011;9607;51.600;7.558;2023-02-03T13:43:47;26.92;;;5.85;;
18947;SDS011;9607;51.600;7.558;2023-02-03T13:46:18;21.00;;;4.85;;
18947;SDS011;9607;51.600;7.558;2023-02-03T13:48:49;23.15;;;5.22;;
18947;SDS011;9607;51.600;7.558;2023-02-03T13:51:19;19.83;;;5.40;;
18947;SDS011;9607;51.600;7.558;2023-02-03T13:53:48;24.38;;;5.65;;
18947;SDS011;9607;51.600;7.558;2023-02-03T13:56:18;22.48;;;4.90;;
18947;SDS011;9607;51.600;7.558;2023-02-03T13:58:57;28.50;;;6.40;;
18947;SDS011;9607;51.600;7.558;2023-02-03T14:01:30;24.05;;;6.25;;
18947;SDS011;9607;51.600;7.558;2023-02-03T14:04:00;27.60;;;5.15;;
18947;SDS011;9607;51.600;7.558;2023-02-03T14:09:20;27.20;;;5.47;;
18947;SDS011;9607;51.600;7.558;2023-02-03T14:11:50;27.17;;;6.15;;
18947;SDS011;9607;51.600;7.558;2023-02-03T14:17:25;30.08;;;6.40;;
18947;SDS011;9607;51.600;7.558;2023-02-03T14:23:47;26.58;;;5.18;;
18947;SDS011;9607;51.600;7.558;2023-02-03T14:26:28;28.67;;;6.57;;
18947;SDS011;9607;51.600;7.558;2023-02-03T14:29:03;22.73;;;5.22;;
18947;SDS011;9607;51.600;7.558;2023-02-03T14:31:31;28.23;;;6.25;;
18947;SDS011;9607;51.600;7.558;2023-02-03T14:37:11;21.83;;;5.13;;
18947;SDS011;9607;51.600;7.558;2023-02-03T14:45:43;26.45;;;5.05;;
18947;SDS011;9607;51.600;7.558;2023-02-03T14:48:29;27.85;;;5.28;;
18947;SDS011;9607;51.600;7.558;2023-02-03T14:51:12;31.88;;;6.13;;
18947;SDS011;9607;51.600;7.558;2023-02-03T14:53:53;24.73;;;5.90;;
18947;SDS011;9607;51.600;7.558;2023-02-03T14:56:42;31.98;;;6.68;;
18947;SDS011;9607;51.600;7.558;2023-02-03T14:59:34;25.63;;;6.38;;
18947;SDS011;9607;51.600;7.558;2023-02-03T15:02:13;31.17;;;6.68;;
18947;SDS011;9607;51.600;7.558;2023-02-03T15:04:46;42.80;;;7.10;;
18947;SDS011;9607;51.600;7.558;2023-02-03T15:07:37;33.40;;;6.43;;
18947;SDS011;9607;51.600;7.558;2023-02-03T15:10:11;32.03;;;6.43;;
18947;SDS011;9607;51.600;7.558;2023-02-03T15:12:44;33.78;;;7.45;;
18947;SDS011;9607;51.600;7.558;2023-02-03T15:15:14;35.17;;;7.55;;
18947;SDS011;9607;51.600;7.558;2023-02-03T15:17:47;30.02;;;5.93;;
18947;SDS011;9607;51.600;7.558;2023-02-03T15:20:21;31.20;;;5.20;;
18947;SDS011;9607;51.600;7.558;2023-02-03T15:22:51;26.95;;;6.22;;
18947;SDS011;9607;51.600;7.558;2023-02-03T15:25:18;36.15;;;5.82;;
18947;SDS011;9607;51.600;7.558;2023-02-03T15:27:49;24.55;;;5.53;;
18947;SDS011;9607;51.600;7.558;2023-02-03T15:30:16;29.17;;;5.93;;